createdAt,value
2023-05-20T00:02:29.259Z,51.31
2023-05-20T00:04:57.453Z,51.35
2023-05-20T00:07:25.492Z,51.78
2023-05-20T00:09:53.522Z,52.86
2023-05-20T00:12:21.536Z,52.94
2023-05-20T00:14:49.478Z,52.43
2023-05-20T00:17:17.679Z,52.74
2023-05-20T00:19:47.020Z,52.87
2023-05-20T00:22:14.954Z,52.64
2023-05-20T00:24:42.876Z,52.83
2023-05-20T00:27:10.877Z,52.08
2023-05-20T00:29:38.809Z,52.42
2023-05-20T00:32:07.748Z,51.88
2023-05-20T00:34:35.823Z,52.29
2023-05-20T00:37:05.134Z,52.32
2023-05-20T00:39:33.088Z,52.78
2023-05-20T00:42:03.488Z,53.03
2023-05-20T00:44:31.480Z,52.77
2023-05-20T00:46:59.401Z,52.08
2023-05-20T00:49:27.402Z,52.47
2023-05-20T00:51:56.017Z,52.43
2023-05-20T00:54:25.343Z,52.32
2023-05-20T00:56:53.366Z,52.16
2023-05-20T00:59:21.652Z,52.02
2023-05-20T01:01:49.609Z,51.97
2023-05-20T01:04:17.601Z,51.92
2023-05-20T01:06:46.306Z,52.05
2023-05-20T01:09:14.978Z,51.99
2023-05-20T01:11:48.658Z,52.16
2023-05-20T01:14:17.778Z,52.24
2023-05-20T01:16:48.143Z,52.37
2023-05-20T01:19:23.771Z,52.76
2023-05-20T01:21:51.974Z,53.72
2023-05-20T01:24:21.278Z,53.19
2023-05-20T01:26:50.441Z,53.06
2023-05-20T01:29:18.861Z,52.24
2023-05-20T01:31:48.402Z,52.69
2023-05-20T01:34:17.011Z,52.91
2023-05-20T01:36:47.263Z,52.65
2023-05-20T01:39:15.315Z,53.10
2023-05-20T01:41:45.170Z,52.87
2023-05-20T01:44:13.236Z,53.03
2023-05-20T01:46:41.293Z,53.25
2023-05-20T01:49:09.319Z,52.46
2023-05-20T01:51:38.086Z,52.79
2023-05-20T01:54:06.073Z,52.88
2023-05-20T01:56:34.199Z,52.76
2023-05-20T01:59:03.543Z,52.66
2023-05-20T02:01:31.583Z,53.01
2023-05-20T02:03:59.528Z,53.18
2023-05-20T02:06:27.464Z,53.17
2023-05-20T02:08:55.460Z,53.00
2023-05-20T02:11:23.428Z,53.59
2023-05-20T02:13:51.466Z,54.21
2023-05-20T02:16:20.959Z,53.46
2023-05-20T02:18:48.957Z,53.84
2023-05-20T02:21:16.899Z,54.43
2023-05-20T02:23:45.296Z,54.60
2023-05-20T02:26:13.253Z,54.65
2023-05-20T02:28:46.558Z,54.56
2023-05-20T02:31:14.514Z,54.79
2023-05-20T02:33:43.883Z,54.81
2023-05-20T02:36:11.860Z,54.60
2023-05-20T02:38:39.861Z,54.93
2023-05-20T02:41:07.892Z,54.36
2023-05-20T02:43:36.486Z,55.50
2023-05-20T02:46:04.886Z,55.58
2023-05-20T02:48:32.842Z,54.90
2023-05-20T02:51:02.187Z,54.84
2023-05-20T02:53:30.106Z,54.63
2023-05-20T02:55:58.804Z,55.23
2023-05-20T02:58:27.815Z,54.73
2023-05-20T03:00:57.814Z,54.50
2023-05-20T03:03:41.392Z,55.13
2023-05-20T03:06:10.897Z,56.11
2023-05-20T03:08:40.320Z,55.81
2023-05-20T03:11:08.250Z,57.81
2023-05-20T03:13:36.287Z,55.74
2023-05-20T03:16:04.419Z,55.77
2023-05-20T03:18:32.365Z,55.58
2023-05-20T03:21:00.299Z,55.48
2023-05-20T03:23:29.635Z,55.37
2023-05-20T03:25:57.590Z,56.43
2023-05-20T03:28:25.518Z,55.22
2023-05-20T03:30:53.497Z,55.52
2023-05-20T03:33:22.807Z,56.09
2023-05-20T03:35:50.756Z,56.27
2023-05-20T03:38:18.692Z,56.27
2023-05-20T03:40:48.049Z,56.78
2023-05-20T03:43:15.969Z,57.42
2023-05-20T03:45:43.962Z,56.36
2023-05-20T03:48:11.868Z,56.21
2023-05-20T03:50:39.795Z,57.07
2023-05-20T03:53:07.754Z,56.69
2023-05-20T03:55:36.017Z,59.65
2023-05-20T03:58:05.597Z,58.15
2023-05-20T04:00:33.532Z,59.92
2023-05-20T04:03:02.137Z,60.51
2023-05-20T04:05:30.121Z,60.05
2023-05-20T04:07:58.583Z,60.02
2023-05-20T04:10:26.547Z,62.53
2023-05-20T04:12:55.004Z,64.83
2023-05-20T04:15:25.296Z,62.74
2023-05-20T04:17:53.560Z,62.29
2023-05-20T04:20:21.519Z,64.33
2023-05-20T04:22:49.496Z,64.53
2023-05-20T04:25:17.685Z,63.56
2023-05-20T04:27:46.042Z,64.65
2023-05-20T04:30:14.302Z,66.38
2023-05-20T04:32:43.736Z,61.72
2023-05-20T04:35:13.970Z,66.02
2023-05-20T04:37:44.651Z,63.51
2023-05-20T04:40:13.942Z,63.10
2023-05-20T04:42:41.900Z,64.11
2023-05-20T04:45:10.608Z,64.73
2023-05-20T04:47:39.698Z,62.45
2023-05-20T04:50:11.770Z,61.87
2023-05-20T04:52:40.142Z,61.24
2023-05-20T04:55:09.801Z,65.71
2023-05-20T04:57:39.654Z,63.40
2023-05-20T05:00:09.288Z,62.55
2023-05-20T05:02:37.615Z,64.10
2023-05-20T05:05:06.300Z,61.89
2023-05-20T05:07:35.873Z,64.66
2023-05-20T05:10:03.900Z,64.87
2023-05-20T05:12:31.874Z,62.47
2023-05-20T05:15:00.074Z,64.30
2023-05-20T05:17:28.918Z,61.23
2023-05-20T05:19:57.194Z,60.87
2023-05-20T05:22:25.162Z,60.42
2023-05-20T05:24:55.877Z,61.66
2023-05-20T05:27:24.080Z,63.08
2023-05-20T05:29:52.010Z,62.68
2023-05-20T05:32:19.975Z,61.91
2023-05-20T05:34:47.994Z,65.32
2023-05-20T05:37:15.947Z,60.74
2023-05-20T05:39:43.932Z,62.46
2023-05-20T05:42:13.240Z,61.43
2023-05-20T05:44:41.188Z,61.99
2023-05-20T05:47:09.737Z,64.67
2023-05-20T05:49:37.815Z,61.90
2023-05-20T05:52:06.458Z,61.77
2023-05-20T05:54:34.452Z,60.49
2023-05-20T05:57:02.973Z,62.10
2023-05-20T05:59:33.308Z,60.08
2023-05-20T06:02:01.379Z,61.28
2023-05-20T06:04:29.335Z,60.22
2023-05-20T06:06:57.336Z,63.56
2023-05-20T06:09:25.291Z,59.86
2023-05-20T06:11:53.274Z,60.13
2023-05-20T06:14:21.248Z,58.52
2023-05-20T06:16:50.575Z,61.60
2023-05-20T06:19:19.213Z,57.81
2023-05-20T06:21:47.197Z,58.59
2023-05-20T06:24:15.172Z,61.23
2023-05-20T06:26:43.262Z,59.60
2023-05-20T06:29:11.219Z,59.44
2023-05-20T06:31:39.216Z,58.91
2023-05-20T06:34:08.566Z,59.25
2023-05-20T06:36:36.522Z,58.24
2023-05-20T06:39:06.542Z,57.24
2023-05-20T06:41:34.499Z,57.40
2023-05-20T06:44:02.491Z,58.16
2023-05-20T06:46:30.498Z,58.56
2023-05-20T06:48:58.459Z,59.16
2023-05-20T06:51:28.117Z,57.35
2023-05-20T06:53:56.307Z,58.82
2023-05-20T06:56:24.529Z,57.95
2023-05-20T06:58:52.472Z,60.55
2023-05-20T07:01:20.562Z,58.23
2023-05-20T07:03:48.592Z,58.18
2023-05-20T07:06:16.569Z,58.22
2023-05-20T07:08:46.120Z,59.80
2023-05-20T07:11:14.080Z,58.79
2023-05-20T07:13:42.055Z,57.31
2023-05-20T07:16:10.153Z,56.87
2023-05-20T07:18:38.158Z,56.55
2023-05-20T07:21:06.159Z,57.72
2023-05-20T07:23:34.084Z,56.72
2023-05-20T07:26:03.461Z,57.35
2023-05-20T07:28:31.489Z,56.50
2023-05-20T07:31:00.376Z,56.97
2023-05-20T07:33:29.695Z,56.67
2023-05-20T07:35:57.698Z,57.99
2023-05-20T07:38:25.670Z,56.18
2023-05-20T07:40:53.576Z,55.72
2023-05-20T07:43:23.010Z,56.55
2023-05-20T07:45:54.053Z,55.13
2023-05-20T07:48:22.008Z,56.00
2023-05-20T07:50:49.932Z,55.02
2023-05-20T07:53:17.904Z,53.77
2023-05-20T07:55:45.928Z,54.11
2023-05-20T07:58:13.875Z,54.06
2023-05-20T08:00:43.284Z,54.86
2023-05-20T08:03:11.957Z,54.19
2023-05-20T08:05:40.527Z,54.04
2023-05-20T08:08:10.534Z,53.88
2023-05-20T08:11:05.406Z,53.76
2023-05-20T08:13:33.588Z,53.19
2023-05-20T08:16:04.009Z,51.99
2023-05-20T08:18:32.862Z,51.81
2023-05-20T08:21:00.966Z,51.74
2023-05-20T08:23:28.914Z,52.25
2023-05-20T08:25:57.598Z,51.69
2023-05-20T08:28:26.018Z,52.00
2023-05-20T08:30:54.075Z,52.15
2023-05-20T08:33:23.552Z,50.84
2023-05-20T08:35:51.580Z,50.63
2023-05-20T08:38:19.540Z,50.25
2023-05-20T08:40:47.647Z,50.67
2023-05-20T08:43:16.402Z,50.91
2023-05-20T08:45:44.396Z,49.68
2023-05-20T08:48:12.772Z,49.58
2023-05-20T08:50:42.322Z,49.48
2023-05-20T08:53:10.383Z,49.69
2023-05-20T08:55:45.043Z,50.26
2023-05-20T08:58:15.516Z,49.46
2023-05-20T09:00:43.447Z,48.98
2023-05-20T09:03:11.462Z,48.51
2023-05-20T09:05:39.436Z,49.48
2023-05-20T09:08:10.104Z,48.75
2023-05-20T09:10:39.425Z,48.17
2023-05-20T09:13:08.206Z,48.72
2023-05-20T09:15:37.184Z,48.16
2023-05-20T09:18:08.314Z,46.75
2023-05-20T09:20:38.234Z,48.61
2023-05-20T09:23:09.404Z,47.72
2023-05-20T09:25:38.095Z,47.83
2023-05-20T09:28:06.224Z,48.32
2023-05-20T09:30:34.375Z,47.49
2023-05-20T09:33:04.821Z,47.40
2023-05-20T09:35:35.911Z,46.84
2023-05-20T09:38:06.339Z,47.43
2023-05-20T09:40:37.708Z,46.39
2023-05-20T09:43:07.320Z,45.38
2023-05-20T09:45:35.754Z,45.47
2023-05-20T09:48:04.253Z,44.51
2023-05-20T09:50:33.286Z,44.81
2023-05-20T09:53:04.615Z,44.56
2023-05-20T09:55:33.069Z,45.13
2023-05-20T09:58:04.448Z,44.45
2023-05-20T10:00:32.451Z,45.47
2023-05-20T10:03:01.104Z,44.03
2023-05-20T10:05:30.930Z,45.90
2023-05-20T10:08:29.330Z,45.19
2023-05-20T10:11:08.188Z,44.57
2023-05-20T10:13:47.531Z,45.25
2023-05-20T10:16:25.198Z,46.31
2023-05-20T10:19:00.108Z,46.24
2023-05-20T10:21:28.225Z,46.57
2023-05-20T10:23:56.359Z,45.54
2023-05-20T10:26:24.298Z,43.70
2023-05-20T10:28:53.655Z,45.67
2023-05-20T10:31:23.168Z,45.03
2023-05-20T10:33:54.218Z,45.27
2023-05-20T10:36:26.981Z,44.79
2023-05-20T10:38:55.959Z,44.98
2023-05-20T10:41:27.817Z,44.61
2023-05-20T10:44:04.286Z,44.52
2023-05-20T10:46:41.789Z,44.56
2023-05-20T10:49:24.190Z,45.61
2023-05-20T10:51:55.661Z,47.31
2023-05-20T10:54:24.136Z,45.69
2023-05-20T10:56:53.574Z,45.48
2023-05-20T10:59:23.267Z,44.95
2023-05-20T11:01:51.272Z,45.25
2023-05-20T11:04:19.904Z,46.06
2023-05-20T11:06:53.818Z,46.38
2023-05-20T11:09:21.951Z,45.23
2023-05-20T11:11:50.564Z,45.49
2023-05-20T11:14:20.136Z,44.88
2023-05-20T11:16:53.099Z,45.97
2023-05-20T11:19:21.595Z,45.67
2023-05-20T11:21:50.160Z,45.36
2023-05-20T11:24:25.335Z,45.85
2023-05-20T11:26:53.834Z,45.86
2023-05-20T11:29:22.514Z,46.41
2023-05-20T11:31:52.358Z,46.19
2023-05-20T11:34:25.025Z,45.83
2023-05-20T11:36:58.499Z,45.92
2023-05-20T11:39:28.073Z,46.78
2023-05-20T11:41:56.108Z,45.80
2023-05-20T11:44:24.192Z,46.23
2023-05-20T11:46:53.584Z,46.13
2023-05-20T11:49:21.500Z,46.12
2023-05-20T11:51:49.653Z,45.93
2023-05-20T11:54:17.849Z,46.13
2023-05-20T11:56:46.131Z,46.48
2023-05-20T11:59:16.230Z,46.36
2023-05-20T12:01:44.604Z,46.60
2023-05-20T12:04:14.870Z,46.94
2023-05-20T12:06:44.222Z,47.00
2023-05-20T12:09:14.071Z,46.02
2023-05-20T12:11:42.433Z,46.55
2023-05-20T12:14:10.905Z,47.41
2023-05-20T12:16:39.449Z,47.44
2023-05-20T12:19:08.804Z,47.27
2023-05-20T12:21:38.204Z,46.90
2023-05-20T12:24:08.551Z,46.57
2023-05-20T12:26:36.579Z,46.19
2023-05-20T12:29:04.591Z,46.66
2023-05-20T12:31:34.643Z,46.71
2023-05-20T12:34:03.147Z,46.85
2023-05-20T12:36:31.577Z,46.51
2023-05-20T12:39:00.934Z,46.47
2023-05-20T12:41:28.865Z,46.12
2023-05-20T12:43:56.848Z,46.55
2023-05-20T12:46:24.832Z,46.16
2023-05-20T12:48:53.254Z,45.08
2023-05-20T12:51:21.247Z,45.19
2023-05-20T12:53:49.263Z,45.41
2023-05-20T12:56:19.348Z,46.12
2023-05-20T12:58:47.315Z,45.82
2023-05-20T13:01:15.274Z,45.87
2023-05-20T13:03:43.409Z,46.23
2023-05-20T13:06:11.395Z,45.67
2023-05-20T13:08:39.357Z,46.10
2023-05-20T13:11:07.354Z,46.19
2023-05-20T13:13:36.679Z,45.66
2023-05-20T13:16:05.368Z,46.84
2023-05-20T13:18:33.378Z,45.54
2023-05-20T13:21:01.302Z,45.72
2023-05-20T13:23:32.191Z,45.41
2023-05-20T13:26:00.376Z,45.64
2023-05-20T13:28:28.356Z,45.72
2023-05-20T13:30:57.782Z,46.63
2023-05-20T13:33:25.757Z,45.54
2023-05-20T13:35:53.713Z,45.76
2023-05-20T13:38:21.702Z,45.83
2023-05-20T13:40:49.804Z,45.34
2023-05-20T13:43:17.742Z,45.40
2023-05-20T13:45:45.734Z,45.78
2023-05-20T13:48:15.164Z,45.52
2023-05-20T13:50:43.181Z,45.91
2023-05-20T13:53:12.577Z,46.41
2023-05-20T13:55:40.586Z,45.95
2023-05-20T13:58:09.192Z,45.96
2023-05-20T14:00:37.413Z,45.55
2023-05-20T14:03:08.986Z,46.06
2023-05-20T14:05:38.488Z,45.91
2023-05-20T14:08:06.742Z,46.07
2023-05-20T14:10:34.909Z,45.42
2023-05-20T14:13:03.188Z,46.60
2023-05-20T14:15:31.497Z,45.78
2023-05-20T14:17:59.686Z,45.28
2023-05-20T14:20:27.709Z,45.51
2023-05-20T14:22:57.340Z,45.33
2023-05-20T14:25:25.328Z,45.61
2023-05-20T14:27:53.242Z,45.39
2023-05-20T14:30:21.200Z,45.84
2023-05-20T14:32:49.186Z,45.67
2023-05-20T14:35:18.287Z,45.77
2023-05-20T14:37:46.412Z,45.63
2023-05-20T14:40:16.644Z,46.63
2023-05-20T14:42:44.583Z,46.13
2023-05-20T14:45:12.675Z,47.25
2023-05-20T14:47:41.095Z,45.70
2023-05-20T14:50:09.532Z,46.60
2023-05-20T14:52:37.517Z,46.44
2023-05-20T14:55:06.138Z,46.60
2023-05-20T14:57:35.728Z,47.08
2023-05-20T15:00:04.174Z,46.45
2023-05-20T15:02:32.307Z,46.34
2023-05-20T15:05:00.306Z,46.20
2023-05-20T15:07:28.234Z,46.40
2023-05-20T15:09:56.402Z,45.97
2023-05-20T15:12:24.390Z,45.97
2023-05-20T15:14:53.701Z,46.36
2023-05-20T15:17:21.745Z,45.57
2023-05-20T15:19:49.919Z,45.92
2023-05-20T15:22:17.844Z,46.54
2023-05-20T15:24:45.838Z,46.64
2023-05-20T15:27:13.779Z,46.54
2023-05-20T15:29:41.739Z,47.06
2023-05-20T15:32:11.308Z,46.94
2023-05-20T15:34:39.276Z,45.76
2023-05-20T15:37:07.211Z,47.39
2023-05-20T15:39:38.373Z,46.89
2023-05-20T15:42:06.543Z,46.75
2023-05-20T15:44:36.096Z,46.77
2023-05-20T15:47:05.853Z,47.10
2023-05-20T15:49:35.472Z,47.20
2023-05-20T15:52:04.399Z,47.61
2023-05-20T15:54:32.630Z,47.88
2023-05-20T15:57:00.630Z,48.79
2023-05-20T15:59:28.562Z,48.78
2023-05-20T16:01:56.689Z,48.86
2023-05-20T16:04:24.890Z,49.31
2023-05-20T16:06:54.293Z,50.61
2023-05-20T16:09:22.468Z,50.65
2023-05-20T16:11:50.472Z,50.23
2023-05-20T16:14:18.572Z,49.99
2023-05-20T16:16:46.677Z,50.79
2023-05-20T16:19:14.744Z,50.56
2023-05-20T16:21:42.724Z,50.42
2023-05-20T16:24:12.464Z,50.16
2023-05-20T16:26:40.595Z,50.00
2023-05-20T16:29:08.599Z,50.88
2023-05-20T16:31:36.576Z,50.65
2023-05-20T16:34:05.079Z,51.63
2023-05-20T16:36:33.019Z,51.05
2023-05-20T16:39:00.988Z,51.01
2023-05-20T16:41:30.763Z,51.07
2023-05-20T16:43:58.710Z,51.19
2023-05-20T16:46:26.667Z,52.49
2023-05-20T16:48:54.613Z,51.11
2023-05-20T16:51:22.721Z,51.26
2023-05-20T16:53:50.778Z,51.45
2023-05-20T16:56:18.755Z,51.07
2023-05-20T16:58:48.528Z,51.97
2023-05-20T17:01:17.359Z,51.60
2023-05-20T17:03:45.414Z,51.42
2023-05-20T17:06:13.469Z,52.57
2023-05-20T17:08:41.391Z,51.75
2023-05-20T17:11:09.346Z,52.87
2023-05-20T17:13:37.274Z,51.85
2023-05-20T17:16:09.645Z,51.55
2023-05-20T17:18:37.817Z,52.22
2023-05-20T17:21:06.071Z,53.00
2023-05-20T17:23:34.068Z,52.97
2023-05-20T17:26:02.065Z,53.74
2023-05-20T17:28:29.998Z,53.54
2023-05-20T17:30:57.970Z,53.97
2023-05-20T17:33:27.401Z,52.56
2023-05-20T17:35:55.414Z,53.03
2023-05-20T17:38:26.195Z,54.40
2023-05-20T17:40:54.215Z,52.48
2023-05-20T17:43:22.300Z,52.67
2023-05-20T17:45:50.325Z,52.83
2023-05-20T17:48:18.305Z,53.18
2023-05-20T17:50:47.769Z,52.31
2023-05-20T17:53:15.865Z,53.10
2023-05-20T17:55:47.050Z,52.52
2023-05-20T17:58:15.064Z,53.96
2023-05-20T18:00:43.023Z,52.78
2023-05-20T18:03:11.236Z,54.38
2023-05-20T18:05:39.210Z,52.81
2023-05-20T18:08:08.568Z,53.47
2023-05-20T18:10:36.819Z,53.60
2023-05-20T18:13:05.010Z,52.81
2023-05-20T18:15:32.943Z,54.54
2023-05-20T18:18:01.478Z,53.55
2023-05-20T18:20:29.592Z,53.57
2023-05-20T18:22:58.584Z,53.42
2023-05-20T18:25:28.143Z,55.50
2023-05-20T18:27:56.083Z,53.13
2023-05-20T18:30:24.335Z,54.44
2023-05-20T18:32:53.291Z,54.42
2023-05-20T18:35:21.354Z,55.02
2023-05-20T18:37:49.391Z,54.31
2023-05-20T18:40:19.080Z,53.63
2023-05-20T18:42:48.561Z,53.43
2023-05-20T18:45:16.702Z,54.28
2023-05-20T18:47:44.712Z,57.58
2023-05-20T18:50:13.139Z,55.46
2023-05-20T18:52:41.079Z,53.58
2023-05-20T18:55:09.732Z,53.93
2023-05-20T18:57:39.256Z,54.51
2023-05-20T19:00:12.391Z,53.75
2023-05-20T19:02:40.758Z,54.33
2023-05-20T19:05:11.405Z,53.55
2023-05-20T19:07:39.802Z,55.14
2023-05-20T19:10:09.205Z,55.29
2023-05-20T19:12:37.270Z,56.16
2023-05-20T19:15:05.957Z,55.11
2023-05-20T19:17:35.269Z,56.38
2023-05-20T19:20:06.878Z,53.59
2023-05-20T19:22:35.053Z,53.72
2023-05-20T19:25:03.056Z,53.71
2023-05-20T19:27:31.265Z,53.64
2023-05-20T19:29:59.377Z,53.70
2023-05-20T19:32:27.387Z,53.54
2023-05-20T19:34:56.735Z,55.45
2023-05-20T19:37:25.358Z,54.37
2023-05-20T19:39:53.355Z,55.61
2023-05-20T19:42:21.351Z,54.35
2023-05-20T19:44:49.686Z,54.43
2023-05-20T19:47:17.695Z,55.41
2023-05-20T19:49:45.665Z,56.79
2023-05-20T19:52:14.962Z,58.07
2023-05-20T19:54:43.190Z,56.16
2023-05-20T19:57:11.305Z,54.84
2023-05-20T19:59:39.296Z,54.87
2023-05-20T20:02:07.458Z,54.69
2023-05-20T20:04:35.412Z,54.65
2023-05-20T20:07:03.660Z,55.29
2023-05-20T20:09:33.127Z,54.98
2023-05-20T20:12:02.708Z,54.94
2023-05-20T20:14:30.692Z,56.12
2023-05-20T20:16:59.757Z,57.49
2023-05-20T20:19:28.621Z,56.01
2023-05-20T20:21:58.229Z,57.05
2023-05-20T20:24:26.898Z,55.97
2023-05-20T20:26:56.997Z,57.89
2023-05-20T20:29:25.072Z,56.87
2023-05-20T20:31:53.242Z,56.03
2023-05-20T20:34:22.076Z,56.43
2023-05-20T20:36:51.272Z,55.71
2023-05-20T20:39:19.993Z,55.55
2023-05-20T20:41:50.269Z,55.35
2023-05-20T20:44:22.575Z,56.36
2023-05-20T20:46:51.591Z,57.45
2023-05-20T20:49:19.876Z,57.08
2023-05-20T20:51:48.412Z,58.12
2023-05-20T20:54:16.673Z,57.01
2023-05-20T20:56:47.068Z,57.40
2023-05-20T20:59:15.993Z,56.59
2023-05-20T21:01:45.726Z,56.44
2023-05-20T21:04:14.585Z,56.99
2023-05-20T21:06:45.973Z,57.23
2023-05-20T21:09:14.038Z,57.47
2023-05-20T21:11:43.031Z,57.07
2023-05-20T21:14:11.368Z,57.35
2023-05-20T21:16:39.406Z,58.43
2023-05-20T21:19:08.817Z,56.98
2023-05-20T21:21:36.982Z,57.51
2023-05-20T21:24:05.142Z,57.34
2023-05-20T21:26:33.089Z,56.86
2023-05-20T21:29:01.071Z,57.81
2023-05-20T21:31:29.055Z,58.49
2023-05-20T21:33:56.979Z,59.88
2023-05-20T21:36:26.322Z,57.74
2023-05-20T21:38:54.240Z,58.77
2023-05-20T21:41:23.511Z,58.30
2023-05-20T21:43:51.613Z,57.78
2023-05-20T21:46:19.579Z,59.10
2023-05-20T21:48:47.551Z,59.11
2023-05-20T21:51:15.647Z,58.35
2023-05-20T21:53:45.072Z,57.70
2023-05-20T21:56:13.006Z,57.55
2023-05-20T21:58:41.884Z,58.61
2023-05-20T22:01:10.479Z,57.66
2023-05-20T22:03:39.987Z,58.29
2023-05-20T22:06:08.273Z,58.23
2023-05-20T22:08:36.233Z,57.63
2023-05-20T22:11:07.501Z,58.03
2023-05-20T22:13:36.394Z,57.91
2023-05-20T22:16:05.088Z,57.85
2023-05-20T22:18:33.281Z,58.01
2023-05-20T22:21:01.358Z,57.83
2023-05-20T22:23:29.878Z,57.82
2023-05-20T22:25:57.948Z,57.76
2023-05-20T22:28:27.320Z,60.18
2023-05-20T22:30:55.863Z,58.79
2023-05-20T22:33:24.408Z,58.20
2023-05-20T22:35:53.581Z,57.76
2023-05-20T22:38:22.038Z,57.73
2023-05-20T22:40:49.953Z,58.22
2023-05-20T22:43:17.893Z,58.98
2023-05-20T22:45:47.275Z,58.81
2023-05-20T22:48:15.361Z,59.16
2023-05-20T22:50:43.277Z,61.43
2023-05-20T22:53:11.260Z,59.57
2023-05-20T22:55:39.729Z,59.19
2023-05-20T22:58:08.152Z,59.16
2023-05-20T23:00:36.442Z,61.01
2023-05-20T23:03:06.401Z,59.63
2023-05-20T23:05:34.489Z,58.95
2023-05-20T23:08:02.573Z,59.34
2023-05-20T23:10:30.617Z,59.17
2023-05-20T23:12:58.534Z,59.01
2023-05-20T23:15:27.741Z,59.58
2023-05-20T23:17:55.753Z,59.24
2023-05-20T23:20:25.752Z,59.34
2023-05-20T23:22:53.672Z,59.60
2023-05-20T23:25:22.049Z,59.68
2023-05-20T23:27:49.999Z,59.60
2023-05-20T23:30:17.919Z,60.00
2023-05-20T23:32:45.916Z,60.81
2023-05-20T23:35:14.390Z,60.72
2023-05-20T23:37:43.690Z,60.01
2023-05-20T23:40:12.267Z,60.95
2023-05-20T23:42:40.559Z,60.11
2023-05-20T23:45:09.443Z,60.86
2023-05-20T23:47:37.855Z,60.39
2023-05-20T23:50:06.320Z,60.32
2023-05-20T23:52:34.302Z,60.36
2023-05-20T23:55:03.658Z,61.15
2023-05-20T23:57:31.576Z,61.77
2023-05-20T23:59:59.896Z,61.10
